Time;durP1;ratioP1;P1;durP2;ratioP2;P2;SDS_P1;SDS_P2;PMS_P1;PMS_P2;Temp;Humidity;BMP_temperature;BMP_pressure;BME280_temperature;BME280_humidity;BME280_pressure;Samples;Min_cycle;Max_cycle;Signal;HPM_P1;HPM_P2
2021/11/24 00:00:09;;;;;;;22.23;11.60;;;;;;;;;;4896198;29;20205;-81
2021/11/24 00:02:36;;;;;;;20.83;11.32;;;;;;;;;;4909742;28;20039;-81
2021/11/24 00:05:04;;;;;;;19.77;11.75;;;;;;;;;;4877837;29;20143;-81
2021/11/24 00:09:50;;;;;;;20.57;11.40;;;;;;;;;;4975634;27;3131722;-80
2021/11/24 00:12:17;;;;;;;20.02;10.73;;;;;;;;;;5034179;28;20288;-80
2021/11/24 00:14:45;;;;;;;19.60;10.40;;;;;;;;;;5035996;28;20025;-81
2021/11/24 00:17:13;;;;;;;18.23;8.95;;;;;;;;;;5035328;28;20056;-81
2021/11/24 00:19:40;;;;;;;18.58;10.02;;;;;;;;;;5043549;28;20136;-81
2021/11/24 00:22:08;;;;;;;19.25;9.98;;;;;;;;;;5028957;28;20049;-80
2021/11/24 00:24:35;;;;;;;16.02;9.85;;;;;;;;;;5035354;28;20484;-80
2021/11/24 00:27:04;;;;;;;20.85;11.07;;;;;;;;;;5012426;28;20079;-81
2021/11/24 00:29:31;;;;;;;20.38;10.50;;;;;;;;;;5030674;28;20052;-81
2021/11/24 00:32:00;;;;;;;15.32;7.47;;;;;;;;;;5033120;28;20498;-81
2021/11/24 00:34:28;;;;;;;13.95;7.10;;;;;;;;;;5030810;28;20032;-80
2021/11/24 00:36:56;;;;;;;16.70;7.47;;;;;;;;;;5034537;28;20130;-81
2021/11/24 00:39:24;;;;;;;15.85;6.93;;;;;;;;;;5040410;28;20737;-81
2021/11/24 00:41:53;;;;;;;14.98;6.93;;;;;;;;;;5037364;28;20032;-80
2021/11/24 00:44:21;;;;;;;14.98;7.15;;;;;;;;;;5042165;28;20115;-80
2021/11/24 00:47:09;;;;;;;16.70;7.70;;;;;;;;;;5036949;28;20033;-81
2021/11/24 00:49:41;;;;;;;18.17;8.80;;;;;;;;;;5034307;28;20045;-80
2021/11/24 00:52:10;;;;;;;19.05;8.43;;;;;;;;;;5056405;28;20036;-80
2021/11/24 00:54:38;;;;;;;13.98;6.40;;;;;;;;;;5037251;28;20139;-80
2021/11/24 00:57:09;;;;;;;16.88;8.38;;;;;;;;;;5062092;28;20044;-79
2021/11/24 00:59:40;;;;;;;16.58;8.10;;;;;;;;;;5071875;28;20041;-80
2021/11/24 01:02:07;;;;;;;13.02;6.53;;;;;;;;;;5058960;28;20037;-81
2021/11/24 01:04:35;;;;;;;15.93;6.80;;;;;;;;;;5070004;28;20463;-80
2021/11/24 01:07:05;;;;;;;14.18;5.90;;;;;;;;;;5072356;28;20029;-80
2021/11/24 01:09:32;;;;;;;14.00;7.13;;;;;;;;;;5058168;28;20055;-80
2021/11/24 01:11:59;;;;;;;17.20;7.55;;;;;;;;;;5050932;28;20024;-80
2021/11/24 01:14:26;;;;;;;17.65;7.90;;;;;;;;;;5073553;28;20131;-80
2021/11/24 01:16:54;;;;;;;21.48;8.80;;;;;;;;;;5068774;28;20033;-80
2021/11/24 01:19:22;;;;;;;18.20;9.60;;;;;;;;;;5050918;28;20036;-80
2021/11/24 01:21:51;;;;;;;15.05;8.27;;;;;;;;;;5034285;28;20037;-80
2021/11/24 01:24:18;;;;;;;15.15;8.52;;;;;;;;;;5037981;28;20626;-82
2021/11/24 01:26:45;;;;;;;18.63;10.48;;;;;;;;;;5023431;28;20105;-80
2021/11/24 01:29:12;;;;;;;;;;;;;;;;;;5042157;28;20052;-81
2021/11/24 01:31:39;;;;;;;14.75;8.30;;;;;;;;;;5039228;28;20439;-82
2021/11/24 01:34:08;;;;;;;17.20;9.13;;;;;;;;;;5031817;28;20044;-81
2021/11/24 01:36:36;;;;;;;17.35;9.38;;;;;;;;;;5023334;28;20051;-81
2021/11/24 01:39:04;;;;;;;16.58;10.02;;;;;;;;;;5044023;28;20066;-82
2021/11/24 01:41:33;;;;;;;20.63;9.75;;;;;;;;;;5029555;28;20035;-84
2021/11/24 01:44:00;;;;;;;18.13;8.98;;;;;;;;;;5025998;28;20048;-84
2021/11/24 01:46:30;;;;;;;15.50;8.93;;;;;;;;;;5025924;28;20032;-84
2021/11/24 01:48:57;;;;;;;16.70;9.55;;;;;;;;;;5035042;28;20048;-84
2021/11/24 01:51:26;;;;;;;17.15;8.60;;;;;;;;;;5018648;28;20059;-84
2021/11/24 01:53:54;;;;;;;14.75;6.90;;;;;;;;;;5041883;28;20040;-84
2021/11/24 01:56:24;;;;;;;13.48;6.10;;;;;;;;;;5039601;28;20040;-84
2021/11/24 01:58:53;;;;;;;14.38;6.57;;;;;;;;;;5022413;28;20044;-83
2021/11/24 02:01:22;;;;;;;15.35;6.38;;;;;;;;;;5038469;28;20037;-84
2021/11/24 02:03:49;;;;;;;18.10;6.53;;;;;;;;;;5061839;28;20032;-84
2021/11/24 02:06:16;;;;;;;16.00;6.35;;;;;;;;;;5033943;28;20043;-83
2021/11/24 02:08:44;;;;;;;14.57;5.40;;;;;;;;;;5047342;28;20055;-85
2021/11/24 02:11:15;;;;;;;13.02;4.82;;;;;;;;;;5030208;28;20032;-84
2021/11/24 02:13:43;;;;;;;16.05;5.32;;;;;;;;;;5001773;28;20076;-83
2021/11/24 02:16:11;;;;;;;15.52;5.50;;;;;;;;;;4977524;28;20029;-84
2021/11/24 02:18:39;;;;;;;14.48;4.68;;;;;;;;;;4987770;28;20721;-85
2021/11/24 02:21:08;;;;;;;13.48;5.00;;;;;;;;;;4996460;28;20136;-84
2021/11/24 02:23:35;;;;;;;11.93;4.25;;;;;;;;;;5016350;28;20095;-84
2021/11/24 02:26:05;;;;;;;13.30;4.53;;;;;;;;;;5028938;28;20129;-84
2021/11/24 02:28:32;;;;;;;13.93;3.72;;;;;;;;;;5041096;28;20044;-85
2021/11/24 02:31:00;;;;;;;11.20;2.90;;;;;;;;;;5043003;28;20037;-84
2021/11/24 02:33:28;;;;;;;13.40;3.22;;;;;;;;;;5022529;28;20733;-84
2021/11/24 02:35:57;;;;;;;12.73;3.58;;;;;;;;;;5037555;28;20238;-84
2021/11/24 02:38:24;;;;;;;13.48;2.67;;;;;;;;;;5020637;28;20567;-84
2021/11/24 02:40:52;;;;;;;11.02;2.83;;;;;;;;;;5003287;28;20748;-82
2021/11/24 02:43:19;;;;;;;10.63;2.95;;;;;;;;;;4990486;28;20029;-83
2021/11/24 02:45:45;;;;;;;10.77;2.70;;;;;;;;;;5004311;28;20033;-83
2021/11/24 02:48:13;;;;;;;8.93;2.47;;;;;;;;;;4988712;28;20143;-83
2021/11/24 02:50:41;;;;;;;9.80;2.63;;;;;;;;;;5004846;28;20029;-82
2021/11/24 02:53:09;;;;;;;9.05;2.70;;;;;;;;;;5003275;28;20053;-82
2021/11/24 02:55:38;;;;;;;11.93;2.90;;;;;;;;;;5040244;28;21363;-83
2021/11/24 02:58:05;;;;;;;9.50;2.67;;;;;;;;;;5020801;28;20045;-82
2021/11/24 03:00:33;;;;;;;;;;;;;;;;;;5025328;28;20044;-82
2021/11/24 03:03:01;;;;;;;10.07;2.70;;;;;;;;;;5022211;28;19909;-82
2021/11/24 03:05:31;;;;;;;12.27;3.10;;;;;;;;;;5021120;28;20124;-82
2021/11/24 03:08:01;;;;;;;9.32;2.78;;;;;;;;;;5007921;28;20033;-82
2021/11/24 03:10:28;;;;;;;12.82;3.15;;;;;;;;;;5018004;28;20053;-81
2021/11/24 03:12:57;;;;;;;9.80;2.80;;;;;;;;;;5028404;28;20297;-81
2021/11/24 03:15:24;;;;;;;11.23;3.30;;;;;;;;;;5031867;28;20140;-82
2021/11/24 03:17:57;;;;;;;10.70;3.25;;;;;;;;;;5043673;28;20029;-81
2021/11/24 03:20:28;;;;;;;12.15;3.92;;;;;;;;;;5042231;28;20033;-81
2021/11/24 03:22:56;;;;;;;13.45;3.78;;;;;;;;;;5036109;28;20037;-81
2021/11/24 03:25:25;;;;;;;10.35;3.63;;;;;;;;;;5028359;28;20683;-83
2021/11/24 03:27:55;;;;;;;12.30;3.72;;;;;;;;;;5023421;28;20072;-81
2021/11/24 03:30:25;;;;;;;12.15;4.32;;;;;;;;;;5016288;28;20021;-83
2021/11/24 03:32:57;;;;;;;13.02;4.40;;;;;;;;;;5023176;28;20079;-83
2021/11/24 03:35:25;;;;;;;12.55;3.97;;;;;;;;;;5017328;28;20045;-83
2021/11/24 03:37:53;;;;;;;11.57;3.42;;;;;;;;;;5020234;28;20033;-80
2021/11/24 03:40:28;;;;;;;11.82;3.00;;;;;;;;;;5015506;28;20049;-81
2021/11/24 03:42:55;;;;;;;10.43;3.35;;;;;;;;;;5025596;28;20044;-82
2021/11/24 03:45:25;;;;;;;9.98;2.88;;;;;;;;;;5021128;28;20025;-82
2021/11/24 03:47:54;;;;;;;10.38;2.78;;;;;;;;;;5019200;28;20061;-82
2021/11/24 03:50:23;;;;;;;14.68;2.97;;;;;;;;;;4995123;28;20133;-82
2021/11/24 03:52:50;;;;;;;11.15;2.90;;;;;;;;;;4994772;28;20048;-82
2021/11/24 03:55:19;;;;;;;10.77;2.80;;;;;;;;;;5001113;28;20073;-81
2021/11/24 03:57:47;;;;;;;11.50;2.72;;;;;;;;;;4977195;28;20648;-81
2021/11/24 04:00:16;;;;;;;12.75;3.00;;;;;;;;;;5000489;28;20033;-82
2021/11/24 04:02:44;;;;;;;10.60;2.83;;;;;;;;;;5007082;28;20083;-82
2021/11/24 04:05:12;;;;;;;11.35;2.45;;;;;;;;;;5017286;28;20120;-83
2021/11/24 04:07:45;;;;;;;8.45;2.22;;;;;;;;;;5017316;28;20078;-82
2021/11/24 04:10:14;;;;;;;13.43;2.78;;;;;;;;;;4998354;28;20038;-82
2021/11/24 04:12:42;;;;;;;8.52;2.60;;;;;;;;;;4970306;28;20069;-83
2021/11/24 04:15:16;;;;;;;9.95;2.42;;;;;;;;;;4976022;28;20033;-83
2021/11/24 04:17:44;;;;;;;13.85;2.75;;;;;;;;;;4996638;28;20030;-83
2021/11/24 04:20:14;;;;;;;8.02;2.17;;;;;;;;;;4971581;28;20159;-82
2021/11/24 04:22:43;;;;;;;10.68;2.40;;;;;;;;;;4981817;28;20586;-83
2021/11/24 04:25:13;;;;;;;11.25;2.78;;;;;;;;;;4994837;28;20030;-84
2021/11/24 04:27:41;;;;;;;11.60;2.97;;;;;;;;;;4967343;28;20039;-84
2021/11/24 04:30:09;;;;;;;9.82;3.15;;;;;;;;;;4950940;28;20083;-84
2021/11/24 04:32:38;;;;;;;11.27;3.15;;;;;;;;;;5001287;28;20208;-84
2021/11/24 04:35:07;;;;;;;9.25;2.92;;;;;;;;;;4966142;28;20075;-84
2021/11/24 04:37:36;;;;;;;9.48;3.03;;;;;;;;;;4981027;28;20116;-84
2021/11/24 04:40:05;;;;;;;11.02;3.83;;;;;;;;;;4982019;28;20119;-84
2021/11/24 04:42:36;;;;;;;8.90;2.83;;;;;;;;;;5001326;28;20037;-83
2021/11/24 04:45:05;;;;;;;12.55;3.10;;;;;;;;;;5016718;28;20587;-83
2021/11/24 04:47:35;;;;;;;10.05;2.65;;;;;;;;;;5003000;28;20030;-84
2021/11/24 04:50:06;;;;;;;12.20;2.90;;;;;;;;;;4986858;28;20390;-83
2021/11/24 04:52:35;;;;;;;10.50;2.70;;;;;;;;;;5002566;28;20030;-83
2021/11/24 04:55:03;;;;;;;13.63;2.67;;;;;;;;;;5006671;28;20040;-83
2021/11/24 04:57:32;;;;;;;11.02;2.50;;;;;;;;;;5002507;28;20115;-83
2021/11/24 04:59:59;;;;;;;8.50;2.60;;;;;;;;;;5022947;28;20029;-85
2021/11/24 05:02:28;;;;;;;8.43;2.83;;;;;;;;;;5014243;28;20033;-87
2021/11/24 05:04:59;;;;;;;8.95;2.20;;;;;;;;;;5040328;28;20117;-89
2021/11/24 05:07:28;;;;;;;11.23;2.35;;;;;;;;;;5030052;28;20048;-89
2021/11/24 05:09:55;;;;;;;9.70;2.25;;;;;;;;;;5034813;28;20070;-91
2021/11/24 05:12:24;;;;;;;9.73;1.90;;;;;;;;;;5053407;28;20028;-92
2021/11/24 05:14:53;;;;;;;10.30;2.28;;;;;;;;;;5037425;28;20033;-93
2021/11/24 05:17:24;;;;;;;8.40;2.20;;;;;;;;;;5036859;28;20026;-91
2021/11/24 05:19:53;;;;;;;7.85;1.60;;;;;;;;;;5042832;28;20513;-87
2021/11/24 05:22:22;;;;;;;8.48;1.85;;;;;;;;;;5048480;28;20147;-86
2021/11/24 05:24:51;;;;;;;7.68;2.00;;;;;;;;;;5045917;28;20055;-85
2021/11/24 05:27:19;;;;;;;8.55;2.20;;;;;;;;;;5041737;28;20360;-84
2021/11/24 05:29:57;;;;;;;13.02;2.58;;;;;;;;;;5049268;28;20123;-85
2021/11/24 05:32:28;;;;;;;7.10;1.73;;;;;;;;;;5045434;28;20056;-84
2021/11/24 05:34:58;;;;;;;6.40;1.73;;;;;;;;;;5047811;28;20025;-85
2021/11/24 05:37:25;;;;;;;7.80;1.70;;;;;;;;;;5039388;28;20047;-86
2021/11/24 05:39:54;;;;;;;7.70;1.65;;;;;;;;;;5045402;28;20384;-87
2021/11/24 05:42:24;;;;;;;11.85;2.90;;;;;;;;;;5043670;28;20029;-87
2021/11/24 05:45:01;;;;;;;14.82;3.20;;;;;;;;;;5033450;28;20032;-87
2021/11/24 05:50:15;;;;;;;11.63;2.28;;;;;;;;;;5055659;28;20514;-91
2021/11/24 05:52:44;;;;;;;8.82;1.80;;;;;;;;;;5056037;28;20499;-92
2021/11/24 05:55:20;;;;;;;9.55;1.83;;;;;;;;;;5060576;28;20112;-93
2021/11/24 05:57:53;;;;;;;8.18;2.10;;;;;;;;;;5049688;28;20050;-92
2021/11/24 06:00:21;;;;;;;9.98;1.90;;;;;;;;;;5035014;28;20091;-92
2021/11/24 06:03:00;;;;;;;7.63;1.70;;;;;;;;;;5062246;28;20031;-93
2021/11/24 06:05:41;;;;;;;8.15;1.42;;;;;;;;;;5060971;28;20047;-91
2021/11/24 06:08:19;;;;;;;10.40;1.88;;;;;;;;;;5068119;28;20059;-92
2021/11/24 06:10:49;;;;;;;9.70;1.92;;;;;;;;;;5054008;28;20040;-94
2021/11/24 06:13:17;;;;;;;6.70;1.52;;;;;;;;;;5066646;28;20033;-93
2021/11/24 06:15:47;;;;;;;7.95;1.65;;;;;;;;;;5063782;28;20036;-92
2021/11/24 06:18:24;;;;;;;7.38;1.85;;;;;;;;;;5039918;28;20043;-93
2021/11/24 06:20:57;;;;;;;8.43;1.70;;;;;;;;;;5038962;28;20022;-92
2021/11/24 06:23:25;;;;;;;9.00;2.92;;;;;;;;;;5049605;28;20033;-93
2021/11/24 06:25:52;;;;;;;9.15;1.88;;;;;;;;;;5054692;28;20033;-93
2021/11/24 06:28:22;;;;;;;7.63;1.80;;;;;;;;;;5037024;28;20129;-92
2021/11/24 06:30:51;;;;;;;9.15;1.63;;;;;;;;;;5058396;28;20032;-93
2021/11/24 06:33:22;;;;;;;7.47;1.60;;;;;;;;;;5054619;28;20089;-92
2021/11/24 06:35:58;;;;;;;9.10;1.73;;;;;;;;;;5065591;28;20070;-92
2021/11/24 06:38:27;;;;;;;8.48;1.90;;;;;;;;;;5014160;28;20052;-93
2021/11/24 06:40:57;;;;;;;12.02;2.90;;;;;;;;;;5049724;28;20068;-93
2021/11/24 06:43:26;;;;;;;10.50;3.33;;;;;;;;;;5042552;28;20041;-92
2021/11/24 06:45:53;;;;;;;7.78;2.20;;;;;;;;;;5031174;28;20029;-92
2021/11/24 06:48:22;;;;;;;11.02;3.13;;;;;;;;;;5021121;28;20041;-91
2021/11/24 06:50:48;;;;;;;9.15;2.50;;;;;;;;;;5045853;28;20543;-92
2021/11/24 06:53:17;;;;;;;8.82;2.95;;;;;;;;;;5011950;28;20899;-92
2021/11/24 06:55:46;;;;;;;8.82;2.30;;;;;;;;;;5034242;28;20520;-92
2021/11/24 06:58:17;;;;;;;8.43;2.33;;;;;;;;;;5037921;28;20506;-92
2021/11/24 07:00:54;;;;;;;6.45;1.80;;;;;;;;;;5052941;28;20037;-91
2021/11/24 07:03:22;;;;;;;9.63;2.20;;;;;;;;;;5055724;28;20041;-91
2021/11/24 07:05:49;;;;;;;8.45;2.60;;;;;;;;;;5067094;28;20032;-90
2021/11/24 07:08:19;;;;;;;8.85;2.50;;;;;;;;;;5041428;28;20128;-90
2021/11/24 07:10:50;;;;;;;12.70;3.03;;;;;;;;;;5037434;28;20045;-91
2021/11/24 07:13:19;;;;;;;9.40;2.60;;;;;;;;;;5030562;28;20037;-91
2021/11/24 07:15:46;;;;;;;9.10;2.60;;;;;;;;;;5051043;28;20057;-92
2021/11/24 07:18:12;;;;;;;7.43;2.25;;;;;;;;;;5049620;28;20030;-91
2021/11/24 07:20:40;;;;;;;7.07;2.35;;;;;;;;;;5028493;28;20045;-91
2021/11/24 07:23:08;;;;;;;6.57;1.90;;;;;;;;;;5043582;28;20044;-91
2021/11/24 07:25:39;;;;;;;8.68;2.35;;;;;;;;;;5016767;28;20047;-91
2021/11/24 07:28:07;;;;;;;7.43;2.83;;;;;;;;;;5043964;28;20053;-88
2021/11/24 07:30:35;;;;;;;15.25;7.78;;;;;;;;;;5044872;28;20043;-90
2021/11/24 07:33:02;;;;;;;8.30;3.00;;;;;;;;;;5048575;28;20021;-90
2021/11/24 07:35:32;;;;;;;10.18;2.88;;;;;;;;;;5037203;28;20029;-91
2021/11/24 07:38:01;;;;;;;10.70;2.75;;;;;;;;;;5051784;28;20036;-91
2021/11/24 07:40:29;;;;;;;12.05;3.78;;;;;;;;;;5050975;28;20584;-91
2021/11/24 07:42:57;;;;;;;13.00;4.97;;;;;;;;;;5031498;28;20036;-91
2021/11/24 07:45:25;;;;;;;8.80;3.13;;;;;;;;;;5027552;28;20033;-90
2021/11/24 07:47:51;;;;;;;8.05;2.60;;;;;;;;;;5055397;28;20665;-91
2021/11/24 07:50:18;;;;;;;9.77;3.10;;;;;;;;;;5041653;28;20055;-90
2021/11/24 07:52:45;;;;;;;11.43;2.65;;;;;;;;;;5031018;28;20071;-91
2021/11/24 07:55:13;;;;;;;37.28;5.00;;;;;;;;;;5020034;28;20084;-91
2021/11/24 07:57:41;;;;;;;47.53;5.50;;;;;;;;;;5045425;28;20036;-91
2021/11/24 08:00:10;;;;;;;10.85;2.40;;;;;;;;;;5027927;28;20033;-91
2021/11/24 08:02:40;;;;;;;11.88;2.30;;;;;;;;;;5044378;28;20087;-90
2021/11/24 08:05:11;;;;;;;9.32;2.30;;;;;;;;;;5032301;28;21058;-90
2021/11/24 08:07:39;;;;;;;14.18;2.70;;;;;;;;;;5024989;28;20030;-90
2021/11/24 08:10:12;;;;;;;15.05;2.78;;;;;;;;;;5033736;28;20041;-89
2021/11/24 08:12:40;;;;;;;15.23;2.92;;;;;;;;;;5037363;28;20041;-88
2021/11/24 08:15:10;;;;;;;11.88;2.72;;;;;;;;;;5007686;28;20120;-88
2021/11/24 08:17:37;;;;;;;10.63;3.38;;;;;;;;;;4971358;28;20077;-88
2021/11/24 08:20:05;;;;;;;11.77;3.03;;;;;;;;;;5000276;28;20049;-88
2021/11/24 08:22:32;;;;;;;10.10;3.80;;;;;;;;;;4982082;28;20044;-87
2021/11/24 08:24:59;;;;;;;8.45;2.85;;;;;;;;;;5017060;28;20084;-88
2021/11/24 08:27:26;;;;;;;;;;;;;;;;;;4996432;28;20037;-87
2021/11/24 08:29:55;;;;;;;12.30;4.75;;;;;;;;;;5012748;28;19974;-87
2021/11/24 08:32:23;;;;;;;11.68;4.25;;;;;;;;;;4974703;28;20073;-87
2021/11/24 08:34:53;;;;;;;9.88;3.53;;;;;;;;;;4997983;28;20080;-87
2021/11/24 08:37:23;;;;;;;8.73;2.67;;;;;;;;;;5010846;28;20034;-86
2021/11/24 08:39:51;;;;;;;6.65;1.75;;;;;;;;;;5001381;28;20037;-87
2021/11/24 08:42:19;;;;;;;5.95;1.80;;;;;;;;;;4998119;28;20128;-87
2021/11/24 08:44:46;;;;;;;6.97;1.90;;;;;;;;;;5007501;28;20040;-87
2021/11/24 08:47:15;;;;;;;7.72;2.10;;;;;;;;;;5007689;28;20038;-87
2021/11/24 08:49:43;;;;;;;11.15;2.45;;;;;;;;;;4997959;28;20091;-87
2021/11/24 08:52:09;;;;;;;8.18;2.17;;;;;;;;;;5034248;28;20059;-87
2021/11/24 08:54:39;;;;;;;11.63;2.63;;;;;;;;;;5048792;28;20134;-87
2021/11/24 08:57:07;;;;;;;8.98;2.47;;;;;;;;;;5063808;28;20025;-87
2021/11/24 08:59:35;;;;;;;5.55;1.70;;;;;;;;;;5032423;28;20046;-87
2021/11/24 09:02:06;;;;;;;5.30;1.38;;;;;;;;;;5046155;28;20041;-87
2021/11/24 09:04:35;;;;;;;5.53;1.50;;;;;;;;;;5056618;28;20032;-88
2021/11/24 09:07:02;;;;;;;6.28;1.58;;;;;;;;;;5047012;28;20819;-86
2021/11/24 09:09:29;;;;;;;6.07;1.67;;;;;;;;;;5038572;28;20049;-87
2021/11/24 09:11:56;;;;;;;5.65;1.77;;;;;;;;;;5034720;28;20024;-86
2021/11/24 09:14:23;;;;;;;5.50;1.48;;;;;;;;;;5064267;28;20084;-87
2021/11/24 09:16:49;;;;;;;7.20;1.85;;;;;;;;;;5058280;28;20149;-86
2021/11/24 09:19:15;;;;;;;;;;;;;;;;;;5043394;28;20060;-86
2021/11/24 09:21:42;;;;;;;9.20;2.10;;;;;;;;;;5063786;28;19916;-86
2021/11/24 09:24:15;;;;;;;6.03;1.60;;;;;;;;;;5049615;28;20131;-85
2021/11/24 09:26:55;;;;;;;6.88;1.77;;;;;;;;;;5046432;28;20078;-85
2021/11/24 09:29:25;;;;;;;6.53;1.35;;;;;;;;;;5041543;28;20784;-86
2021/11/24 09:31:55;;;;;;;5.68;1.80;;;;;;;;;;5053442;28;20048;-85
2021/11/24 09:34:23;;;;;;;6.25;1.60;;;;;;;;;;5042501;28;20048;-85
2021/11/24 09:36:51;;;;;;;4.78;1.50;;;;;;;;;;5035305;28;20542;-85
2021/11/24 09:39:19;;;;;;;10.40;2.50;;;;;;;;;;5062044;28;20392;-85
2021/11/24 09:41:47;;;;;;;9.02;3.05;;;;;;;;;;5064657;28;20024;-84
2021/11/24 09:44:15;;;;;;;9.15;2.90;;;;;;;;;;5043863;28;20040;-84
2021/11/24 09:46:46;;;;;;;11.15;2.85;;;;;;;;;;5051912;28;20037;-84
2021/11/24 09:49:16;;;;;;;7.88;2.67;;;;;;;;;;5049092;28;20055;-84
2021/11/24 09:51:48;;;;;;;9.07;2.53;;;;;;;;;;5049486;28;20045;-83
2021/11/24 09:54:17;;;;;;;6.97;1.55;;;;;;;;;;5037812;28;20037;-83
2021/11/24 09:56:55;;;;;;;6.38;1.67;;;;;;;;;;5042767;28;20829;-84
2021/11/24 09:59:23;;;;;;;9.93;3.28;;;;;;;;;;5048595;28;20032;-83
2021/11/24 10:01:51;;;;;;;8.90;2.80;;;;;;;;;;5043498;28;20156;-83
2021/11/24 10:04:19;;;;;;;7.85;2.20;;;;;;;;;;5035925;28;20029;-83
2021/11/24 10:06:52;;;;;;;17.70;2.72;;;;;;;;;;5034355;28;20094;-86
2021/11/24 10:09:19;;;;;;;15.70;4.28;;;;;;;;;;5048012;28;20106;-93
2021/11/24 10:11:47;;;;;;;10.55;3.28;;;;;;;;;;5055105;28;20025;-93
2021/11/24 10:14:17;;;;;;;7.90;2.72;;;;;;;;;;5056778;28;20625;-92
2021/11/24 10:16:46;;;;;;;10.02;2.72;;;;;;;;;;5050847;28;20514;-92
2021/11/24 10:19:15;;;;;;;6.97;2.15;;;;;;;;;;5053940;28;20131;-92
2021/11/24 10:22:04;;;;;;;10.38;2.35;;;;;;;;;;5050004;28;20056;-92
2021/11/24 10:24:38;;;;;;;9.93;2.60;;;;;;;;;;5034228;28;20094;-93
2021/11/24 10:27:08;;;;;;;6.97;2.40;;;;;;;;;;5096849;28;20023;-93
2021/11/24 10:29:40;;;;;;;10.65;3.10;;;;;;;;;;5065323;28;20118;-93
2021/11/24 10:32:09;;;;;;;7.07;2.05;;;;;;;;;;5069178;28;20063;-92
2021/11/24 10:34:38;;;;;;;6.25;1.70;;;;;;;;;;5066230;28;20800;-94
2021/11/24 10:37:10;;;;;;;374.77;21.95;;;;;;;;;;5080364;28;20025;-95
2021/11/24 10:39:51;;;;;;;6.40;1.90;;;;;;;;;;5063395;28;20109;-94
2021/11/24 10:42:23;;;;;;;7.15;1.50;;;;;;;;;;5060497;28;20055;-94
2021/11/24 10:45:10;;;;;;;7.25;1.73;;;;;;;;;;5077118;28;20031;-93
2021/11/24 10:48:16;;;;;;;8.82;1.10;;;;;;;;;;5040595;28;20044;-93
2021/11/24 10:50:43;;;;;;;6.82;1.50;;;;;;;;;;4993835;28;20076;-94
2021/11/24 10:53:20;;;;;;;7.63;1.73;;;;;;;;;;5016051;28;20037;-94
2021/11/24 10:55:47;;;;;;;7.38;1.85;;;;;;;;;;4994653;28;20101;-92
2021/11/24 10:58:18;;;;;;;6.78;1.98;;;;;;;;;;4990765;28;20053;-92
2021/11/24 11:00:49;;;;;;;8.60;1.80;;;;;;;;;;4985434;28;20057;-91
2021/11/24 11:03:24;;;;;;;5.78;1.05;;;;;;;;;;4983914;28;20174;-92
2021/11/24 11:05:55;;;;;;;8.13;1.92;;;;;;;;;;4986268;28;20045;-92
2021/11/24 11:08:23;;;;;;;8.38;2.00;;;;;;;;;;4966108;28;20038;-91
2021/11/24 11:10:54;;;;;;;10.68;1.83;;;;;;;;;;4977576;28;20132;-91
2021/11/24 11:13:23;;;;;;;7.88;1.60;;;;;;;;;;4973894;28;20034;-91
2021/11/24 11:15:59;;;;;;;7.47;1.42;;;;;;;;;;4946681;28;20042;-92
2021/11/24 11:18:32;;;;;;;10.18;2.80;;;;;;;;;;4966648;28;20038;-91
2021/11/24 11:21:09;;;;;;;10.10;2.20;;;;;;;;;;4976345;28;20209;-91
2021/11/24 11:23:49;;;;;;;10.70;2.67;;;;;;;;;;4982457;28;20042;-90
2021/11/24 11:26:21;;;;;;;15.07;1.80;;;;;;;;;;5051406;28;20164;-91
2021/11/24 11:28:50;;;;;;;8.98;1.67;;;;;;;;;;5037145;28;20379;-91
2021/11/24 11:31:22;;;;;;;10.90;2.10;;;;;;;;;;5047759;28;20025;-91
2021/11/24 11:34:04;;;;;;;13.27;2.10;;;;;;;;;;5050442;28;20033;-91
2021/11/24 11:36:33;;;;;;;10.90;2.90;;;;;;;;;;5046347;28;20047;-90
2021/11/24 11:39:02;;;;;;;7.57;1.75;;;;;;;;;;5052070;28;20254;-90
2021/11/24 11:41:34;;;;;;;5.65;1.00;;;;;;;;;;5050817;28;20044;-90
2021/11/24 11:44:02;;;;;;;7.43;1.10;;;;;;;;;;5042188;28;20044;-91
2021/11/24 11:46:37;;;;;;;7.65;1.20;;;;;;;;;;5041472;28;20037;-89
2021/11/24 11:49:11;;;;;;;8.38;1.38;;;;;;;;;;5046698;28;20854;-90
2021/11/24 11:51:40;;;;;;;7.43;1.15;;;;;;;;;;5035700;28;20043;-90
2021/11/24 11:54:20;;;;;;;4.25;0.90;;;;;;;;;;5056330;28;20113;-89
2021/11/24 11:56:46;;;;;;;5.30;1.00;;;;;;;;;;5053435;28;20064;-89
2021/11/24 11:59:32;;;;;;;7.35;1.10;;;;;;;;;;5046446;28;20021;-88
2021/11/24 12:02:01;;;;;;;7.95;0.95;;;;;;;;;;5038370;28;20037;-88
2021/11/24 12:04:33;;;;;;;6.07;0.90;;;;;;;;;;5030004;28;20060;-88
2021/11/24 12:07:05;;;;;;;4.80;1.15;;;;;;;;;;5032410;28;20044;-89
2021/11/24 12:10:07;;;;;;;5.30;1.10;;;;;;;;;;5016622;28;20154;-89
2021/11/24 12:12:35;;;;;;;8.48;1.50;;;;;;;;;;5042517;28;20041;-89
2021/11/24 12:15:08;;;;;;;7.50;1.20;;;;;;;;;;5042809;28;20028;-88
2021/11/24 12:17:42;;;;;;;6.63;1.35;;;;;;;;;;5015870;28;20059;-88
2021/11/24 12:20:19;;;;;;;5.25;1.30;;;;;;;;;;5030799;28;20048;-87
2021/11/24 12:25:39;;;;;;;7.32;1.85;;;;;;;;;;5035912;28;20041;-87
2021/11/24 12:28:10;;;;;;;9.98;1.92;;;;;;;;;;5014829;28;20041;-89
2021/11/24 12:31:00;;;;;;;13.20;3.83;;;;;;;;;;5000589;28;20037;-88
2021/11/24 12:33:30;;;;;;;11.60;3.38;;;;;;;;;;5025136;28;20040;-87
2021/11/24 12:36:08;;;;;;;10.07;2.95;;;;;;;;;;5023131;28;20033;-90
2021/11/24 12:38:45;;;;;;;6.05;1.58;;;;;;;;;;5019461;28;20033;-89
2021/11/24 12:41:22;;;;;;;6.75;1.38;;;;;;;;;;5029441;28;20045;-88
2021/11/24 12:43:51;;;;;;;9.73;3.28;;;;;;;;;;5033404;28;20037;-89
2021/11/24 12:46:32;;;;;;;12.40;3.60;;;;;;;;;;5022935;28;20196;-88
2021/11/24 12:49:02;;;;;;;9.45;2.47;;;;;;;;;;5006305;28;20041;-89
2021/11/24 12:51:37;;;;;;;6.63;1.55;;;;;;;;;;5023047;28;20048;-88
2021/11/24 12:54:11;;;;;;;7.25;1.20;;;;;;;;;;5039361;28;20135;-88
2021/11/24 12:57:03;;;;;;;10.27;1.63;;;;;;;;;;5047968;28;20142;-88
2021/11/24 12:59:31;;;;;;;5.28;0.98;;;;;;;;;;5024865;28;20037;-89
2021/11/24 13:02:02;;;;;;;6.35;0.98;;;;;;;;;;5022618;28;20033;-87
2021/11/24 13:04:38;;;;;;;6.95;1.05;;;;;;;;;;5012763;28;20040;-88
2021/11/24 13:07:07;;;;;;;8.38;1.75;;;;;;;;;;4991775;28;20057;-88
2021/11/24 13:09:40;;;;;;;7.25;1.15;;;;;;;;;;5000592;28;20041;-88
2021/11/24 13:12:12;;;;;;;7.00;1.38;;;;;;;;;;5007244;28;20053;-89
2021/11/24 13:14:45;;;;;;;10.52;1.70;;;;;;;;;;5014437;28;20088;-90
2021/11/24 13:17:25;;;;;;;6.53;1.30;;;;;;;;;;5029711;28;20045;-90
2021/11/24 13:20:01;;;;;;;9.05;2.50;;;;;;;;;;5035371;28;20048;-89
2021/11/24 13:22:42;;;;;;;6.13;1.40;;;;;;;;;;5010191;28;20061;-89
2021/11/24 13:25:24;;;;;;;8.63;1.70;;;;;;;;;;5031207;28;20322;-90
2021/11/24 13:28:01;;;;;;;5.35;1.33;;;;;;;;;;5030593;28;20088;-86
2021/11/24 13:30:34;;;;;;;4.32;1.30;;;;;;;;;;5040218;28;20045;-87
2021/11/24 13:33:05;;;;;;;7.00;1.70;;;;;;;;;;5031112;28;20021;-87
2021/11/24 13:35:33;;;;;;;6.93;1.60;;;;;;;;;;5044208;28;20037;-87
2021/11/24 13:38:02;;;;;;;5.75;1.42;;;;;;;;;;4997430;28;20030;-87
2021/11/24 13:40:37;;;;;;;6.75;1.85;;;;;;;;;;5002364;28;20029;-85
2021/11/24 13:43:05;;;;;;;4.88;1.20;;;;;;;;;;5027832;28;20037;-86
2021/11/24 13:45:36;;;;;;;4.38;1.10;;;;;;;;;;5024278;28;20033;-87
2021/11/24 13:48:11;;;;;;;4.93;1.40;;;;;;;;;;4996670;28;20048;-85
2021/11/24 13:50:38;;;;;;;4.65;1.00;;;;;;;;;;5038924;28;20096;-86
2021/11/24 13:53:30;;;;;;;5.32;1.63;;;;;;;;;;5039409;28;20032;-85
2021/11/24 13:56:16;;;;;;;8.23;2.17;;;;;;;;;;5040627;28;20047;-84
2021/11/24 13:59:09;;;;;;;7.70;1.55;;;;;;;;;;5029995;28;20107;-84
2021/11/24 14:01:48;;;;;;;5.63;1.35;;;;;;;;;;5032720;28;20363;-84
2021/11/24 14:04:31;;;;;;;6.25;1.70;;;;;;;;;;5034188;28;20041;-83
2021/11/24 14:07:13;;;;;;;5.40;1.20;;;;;;;;;;5029423;28;20040;-83
2021/11/24 14:10:12;;;;;;;8.18;1.90;;;;;;;;;;5035359;28;20420;-84
2021/11/24 14:12:39;;;;;;;5.68;1.15;;;;;;;;;;5050317;28;20137;-83
2021/11/24 14:15:20;;;;;;;6.35;1.55;;;;;;;;;;5022356;28;20141;-85
2021/11/24 14:17:55;;;;;;;8.65;1.90;;;;;;;;;;5006013;28;20168;-85
2021/11/24 14:20:29;;;;;;;7.20;1.88;;;;;;;;;;5011897;28;20124;-85
2021/11/24 14:22:59;;;;;;;7.60;1.80;;;;;;;;;;4987937;28;20475;-85
2021/11/24 14:25:47;;;;;;;7.60;1.95;;;;;;;;;;5001903;28;20192;-86
2021/11/24 14:28:17;;;;;;;11.18;2.30;;;;;;;;;;5018481;28;20338;-86
2021/11/24 14:30:46;;;;;;;5.97;1.08;;;;;;;;;;5005944;28;20635;-87
2021/11/24 14:33:15;;;;;;;4.60;1.20;;;;;;;;;;5026525;28;20203;-88
2021/11/24 14:35:46;;;;;;;9.10;1.38;;;;;;;;;;5015872;28;20037;-88
2021/11/24 14:38:16;;;;;;;7.70;1.15;;;;;;;;;;5031895;28;20033;-89
2021/11/24 14:40:46;;;;;;;5.53;1.20;;;;;;;;;;5033216;28;20032;-87
2021/11/24 14:43:14;;;;;;;8.68;1.10;;;;;;;;;;5032028;28;20464;-88
2021/11/24 14:45:45;;;;;;;8.05;1.15;;;;;;;;;;5027716;28;20041;-86
2021/11/24 14:48:13;;;;;;;8.77;1.65;;;;;;;;;;5049769;28;20578;-87
2021/11/24 14:50:43;;;;;;;5.25;1.10;;;;;;;;;;5029352;28;20087;-85
2021/11/24 14:53:09;;;;;;;7.47;1.10;;;;;;;;;;5017188;28;20056;-85
2021/11/24 14:55:39;;;;;;;6.32;1.02;;;;;;;;;;5049360;28;24464;-85
2021/11/24 14:58:07;;;;;;;6.28;2.10;;;;;;;;;;5047026;28;20047;-83
2021/11/24 15:00:36;;;;;;;5.45;1.25;;;;;;;;;;5046145;28;20098;-83
2021/11/24 15:03:02;;;;;;;8.05;1.60;;;;;;;;;;5039510;28;20057;-82
2021/11/24 15:05:28;;;;;;;;;;;;;;;;;;5041264;28;20058;-83